createdAt,value
2023-04-24T00:00:13.899Z,18.70
2023-04-24T00:00:45.306Z,18.71
2023-04-24T00:01:16.718Z,18.71
2023-04-24T00:01:48.163Z,18.68
2023-04-24T00:02:19.652Z,18.68
2023-04-24T00:02:51.332Z,18.68
2023-04-24T00:03:23.101Z,18.69
2023-04-24T00:03:54.671Z,18.69
2023-04-24T00:04:26.232Z,18.68
2023-04-24T00:04:57.766Z,18.68
2023-04-24T00:05:29.207Z,18.67
2023-04-24T00:06:00.638Z,18.68
2023-04-24T00:06:32.030Z,18.68
2023-04-24T00:07:03.439Z,18.67
2023-04-24T00:07:34.847Z,18.67
2023-04-24T00:08:06.254Z,18.66
2023-04-24T00:08:37.688Z,18.68
2023-04-24T00:09:09.097Z,18.68
2023-04-24T00:09:40.741Z,18.66
2023-04-24T00:10:12.426Z,18.68
2023-04-24T00:10:43.840Z,18.69
2023-04-24T00:11:15.257Z,18.68
2023-04-24T00:11:46.679Z,18.67
2023-04-24T00:12:18.073Z,18.65
2023-04-24T00:12:49.476Z,18.66
2023-04-24T00:13:20.921Z,18.67
2023-04-24T00:13:52.323Z,18.66
2023-04-24T00:14:23.716Z,18.67
2023-04-24T00:14:55.108Z,18.66
2023-04-24T00:15:26.537Z,18.66
2023-04-24T00:15:57.955Z,18.66
2023-04-24T00:16:29.490Z,18.65
2023-04-24T00:17:01.073Z,18.66
2023-04-24T00:17:32.594Z,18.65
2023-04-24T00:18:04.061Z,18.64
2023-04-24T00:18:35.520Z,18.63
2023-04-24T00:19:06.969Z,18.63
2023-04-24T00:19:38.394Z,18.61
2023-04-24T00:20:09.788Z,18.61
2023-04-24T00:20:41.211Z,18.63
2023-04-24T00:21:12.617Z,18.62
2023-04-24T00:21:44.023Z,18.63
2023-04-24T00:22:15.415Z,18.62
2023-04-24T00:22:46.806Z,18.61
2023-04-24T00:23:18.196Z,18.62
2023-04-24T00:23:49.612Z,18.62
2023-04-24T00:24:21.016Z,18.62
2023-04-24T00:24:52.426Z,18.61
2023-04-24T00:25:23.830Z,18.61
2023-04-24T00:25:55.274Z,18.61
2023-04-24T00:26:26.685Z,18.60
2023-04-24T00:26:58.108Z,18.61
2023-04-24T00:27:29.527Z,18.60
2023-04-24T00:28:00.933Z,18.61
2023-04-24T00:28:32.344Z,18.58
2023-04-24T00:29:03.782Z,18.58
2023-04-24T00:29:35.201Z,18.57
2023-04-24T00:30:06.598Z,18.58
2023-04-24T00:30:38.021Z,18.59
2023-04-24T00:31:09.467Z,18.58
2023-04-24T00:31:40.996Z,18.57
2023-04-24T00:32:12.551Z,18.58
2023-04-24T00:32:44.066Z,18.57
2023-04-24T00:33:15.505Z,18.59
2023-04-24T00:33:46.913Z,18.56
2023-04-24T00:34:18.329Z,18.57
2023-04-24T00:34:49.739Z,18.57
2023-04-24T00:35:21.230Z,18.58
2023-04-24T00:35:52.646Z,18.58
2023-04-24T00:36:24.118Z,18.57
2023-04-24T00:36:55.520Z,18.57
2023-04-24T00:37:26.929Z,18.58
2023-04-24T00:37:58.338Z,18.57
2023-04-24T00:38:29.753Z,18.57
2023-04-24T00:39:01.149Z,18.57
2023-04-24T00:39:32.538Z,18.57
2023-04-24T00:40:03.932Z,18.57
2023-04-24T00:40:35.349Z,18.57
2023-04-24T00:41:06.764Z,18.56
2023-04-24T00:41:38.158Z,18.56
2023-04-24T00:42:09.572Z,18.54
2023-04-24T00:42:40.967Z,18.53
2023-04-24T00:43:12.383Z,18.51
2023-04-24T00:43:43.806Z,18.49
2023-04-24T00:44:15.209Z,18.50
2023-04-24T00:44:46.611Z,18.51
2023-04-24T00:45:18.002Z,18.51
2023-04-24T00:45:49.440Z,18.53
2023-04-24T00:46:20.879Z,18.49
2023-04-24T00:46:52.317Z,18.50
2023-04-24T00:47:23.733Z,18.52
2023-04-24T00:47:55.153Z,18.52
2023-04-24T00:48:26.609Z,18.53
2023-04-24T00:48:58.014Z,18.52
2023-04-24T00:49:29.414Z,18.52
2023-04-24T00:50:00.866Z,18.53
2023-04-24T00:50:32.300Z,18.52
2023-04-24T00:51:03.743Z,18.52
2023-04-24T00:51:35.190Z,18.53
2023-04-24T00:52:06.599Z,18.53
2023-04-24T00:52:38.146Z,18.52
2023-04-24T00:53:09.650Z,18.51
2023-04-24T00:53:41.080Z,18.51
2023-04-24T00:54:12.490Z,18.52
2023-04-24T00:54:43.890Z,18.52
2023-04-24T00:55:15.296Z,18.53
2023-04-24T00:55:46.708Z,18.52
2023-04-24T00:56:18.156Z,18.52
2023-04-24T00:56:49.612Z,18.52
2023-04-24T00:57:21.072Z,18.50
2023-04-24T00:57:52.506Z,18.50
2023-04-24T00:58:23.913Z,18.50
2023-04-24T00:58:55.313Z,18.50
2023-04-24T00:59:26.721Z,18.50
2023-04-24T00:59:58.114Z,18.50
2023-04-24T01:00:29.545Z,18.50
2023-04-24T01:01:00.965Z,18.49
2023-04-24T01:01:32.422Z,18.49
2023-04-24T01:02:03.869Z,18.49
2023-04-24T01:02:35.613Z,18.49
2023-04-24T01:03:07.404Z,18.48
2023-04-24T01:03:39.166Z,18.49
2023-04-24T01:04:10.930Z,18.49
2023-04-24T01:04:42.553Z,18.48
2023-04-24T01:05:14.074Z,18.48
2023-04-24T01:05:45.505Z,18.48
2023-04-24T01:06:16.904Z,18.48
2023-04-24T01:06:48.315Z,18.48
2023-04-24T01:07:19.733Z,18.48
2023-04-24T01:07:51.139Z,18.47
2023-04-24T01:08:22.568Z,18.46
2023-04-24T01:08:53.998Z,18.47
2023-04-24T01:09:25.417Z,18.46
2023-04-24T01:09:56.824Z,18.47
2023-04-24T01:10:28.226Z,18.46
2023-04-24T01:10:59.639Z,18.46
2023-04-24T01:11:31.054Z,18.46
2023-04-24T01:12:02.484Z,18.47
2023-04-24T01:12:33.923Z,18.46
2023-04-24T01:13:05.336Z,18.45
2023-04-24T01:13:36.745Z,18.46
2023-04-24T01:14:08.157Z,18.45
2023-04-24T01:14:39.560Z,18.45
2023-04-24T01:15:10.961Z,18.45
2023-04-24T01:15:42.383Z,18.45
2023-04-24T01:16:13.924Z,18.45
2023-04-24T01:16:45.363Z,18.46
2023-04-24T01:17:16.840Z,18.45
2023-04-24T01:17:48.305Z,18.44
2023-04-24T01:18:19.739Z,18.44
2023-04-24T01:18:51.127Z,18.44
2023-04-24T01:19:22.533Z,18.44
2023-04-24T01:19:53.946Z,18.44
2023-04-24T01:20:25.357Z,18.44
2023-04-24T01:20:56.755Z,18.44
2023-04-24T01:21:28.165Z,18.44
2023-04-24T01:21:59.579Z,18.43
2023-04-24T01:22:31.058Z,18.43
2023-04-24T01:23:02.447Z,18.43
2023-04-24T01:23:33.841Z,18.43
2023-04-24T01:24:05.251Z,18.42
2023-04-24T01:24:36.691Z,18.45
2023-04-24T01:25:08.114Z,18.43
2023-04-24T01:25:39.526Z,18.42
2023-04-24T01:26:10.941Z,18.43
2023-04-24T01:26:42.353Z,18.41
2023-04-24T01:27:13.757Z,18.42
2023-04-24T01:27:45.214Z,18.42
2023-04-24T01:28:16.622Z,18.43
2023-04-24T01:28:48.041Z,18.43
2023-04-24T01:29:19.445Z,18.43
2023-04-24T01:29:50.872Z,18.41
2023-04-24T01:30:22.277Z,18.41
2023-04-24T01:30:53.716Z,18.41
2023-04-24T01:31:25.235Z,18.42
2023-04-24T01:31:56.691Z,18.42
2023-04-24T01:32:28.123Z,18.41
2023-04-24T01:32:59.624Z,18.41
2023-04-24T01:33:31.146Z,18.41
2023-04-24T01:34:02.557Z,18.41
2023-04-24T01:34:33.976Z,18.41
2023-04-24T01:35:05.393Z,18.41
2023-04-24T01:35:36.809Z,18.40
2023-04-24T01:36:08.195Z,18.40
2023-04-24T01:36:39.604Z,18.40
2023-04-24T01:37:11.021Z,18.40
2023-04-24T01:37:42.458Z,18.40
2023-04-24T01:38:13.872Z,18.39
2023-04-24T01:38:45.277Z,18.39
2023-04-24T01:39:16.691Z,18.40
2023-04-24T01:39:48.100Z,18.39
2023-04-24T01:40:19.494Z,18.39
2023-04-24T01:40:50.903Z,18.39
2023-04-24T01:41:22.323Z,18.38
2023-04-24T01:41:53.726Z,18.40
2023-04-24T01:42:25.127Z,18.38
2023-04-24T01:42:56.540Z,18.38
2023-04-24T01:43:27.956Z,18.38
2023-04-24T01:43:59.373Z,18.38
2023-04-24T01:44:30.761Z,18.38
2023-04-24T01:45:02.187Z,18.38
2023-04-24T01:45:33.593Z,18.37
2023-04-24T01:46:05.021Z,18.37
2023-04-24T01:46:36.506Z,18.37
2023-04-24T01:47:07.976Z,18.38
2023-04-24T01:47:39.566Z,18.37
2023-04-24T01:48:10.987Z,18.37
2023-04-24T01:48:42.393Z,18.37
2023-04-24T01:49:13.802Z,18.37
2023-04-24T01:49:45.520Z,18.37
2023-04-24T01:50:17.119Z,18.37
2023-04-24T01:50:48.552Z,18.37
2023-04-24T01:51:19.969Z,18.35
2023-04-24T01:51:51.384Z,18.36
2023-04-24T01:52:22.831Z,18.35
2023-04-24T01:52:54.278Z,18.36
2023-04-24T01:53:25.727Z,18.35
2023-04-24T01:53:57.119Z,18.35
2023-04-24T01:54:28.519Z,18.35
2023-04-24T01:54:59.936Z,18.35
2023-04-24T01:55:31.338Z,18.34
2023-04-24T01:56:02.763Z,18.34
2023-04-24T01:56:34.171Z,18.35
2023-04-24T01:57:05.576Z,18.34
2023-04-24T01:57:36.982Z,18.33
2023-04-24T01:58:08.395Z,18.34
2023-04-24T01:58:39.848Z,18.34
2023-04-24T01:59:11.308Z,18.34
2023-04-24T01:59:42.897Z,18.34
2023-04-24T02:00:14.436Z,18.33
2023-04-24T02:00:45.856Z,18.34
2023-04-24T02:01:17.351Z,18.32
2023-04-24T02:01:48.805Z,18.32
2023-04-24T02:02:20.340Z,18.33
2023-04-24T02:02:52.047Z,18.33
2023-04-24T02:03:23.681Z,18.33
2023-04-24T02:03:55.340Z,18.32
2023-04-24T02:04:26.886Z,18.32
2023-04-24T02:04:58.324Z,18.32
2023-04-24T02:05:29.716Z,18.32
2023-04-24T02:06:01.102Z,18.31
2023-04-24T02:06:32.517Z,18.30
2023-04-24T02:07:03.925Z,18.31
2023-04-24T02:07:35.343Z,18.30
2023-04-24T02:08:06.779Z,18.31
2023-04-24T02:08:38.208Z,18.31
2023-04-24T02:09:09.623Z,18.31
2023-04-24T02:09:41.201Z,18.31
2023-04-24T02:10:12.765Z,18.30
2023-04-24T02:10:44.178Z,18.30
2023-04-24T02:11:15.610Z,18.30
2023-04-24T02:11:47.033Z,18.29
2023-04-24T02:12:18.453Z,18.29
2023-04-24T02:12:49.877Z,18.29
2023-04-24T02:13:21.272Z,18.29
2023-04-24T02:13:52.689Z,18.29
2023-04-24T02:14:24.097Z,18.29
2023-04-24T02:14:55.539Z,18.29
2023-04-24T02:15:26.946Z,18.28
2023-04-24T02:15:58.363Z,18.28
2023-04-24T02:16:29.833Z,18.27
2023-04-24T02:17:01.268Z,18.28
2023-04-24T02:17:32.718Z,18.29
2023-04-24T02:18:04.217Z,18.28
2023-04-24T02:18:35.659Z,18.28
2023-04-24T02:19:07.064Z,18.28
2023-04-24T02:19:38.491Z,18.28
2023-04-24T02:20:09.972Z,18.27
2023-04-24T02:20:41.411Z,18.27
2023-04-24T02:21:12.840Z,18.27
2023-04-24T02:21:44.252Z,18.26
2023-04-24T02:22:15.659Z,18.27
2023-04-24T02:22:47.074Z,18.25
2023-04-24T02:23:18.515Z,18.26
2023-04-24T02:23:49.922Z,18.26
2023-04-24T02:24:21.343Z,18.27
2023-04-24T02:24:52.783Z,18.26
2023-04-24T02:25:24.256Z,18.26
2023-04-24T02:25:55.703Z,18.25
2023-04-24T02:26:27.116Z,18.26
2023-04-24T02:26:58.509Z,18.25
2023-04-24T02:27:29.940Z,18.25
2023-04-24T02:28:01.336Z,18.25
2023-04-24T02:28:32.746Z,18.25
2023-04-24T02:29:04.139Z,18.24
2023-04-24T02:29:35.623Z,18.24
2023-04-24T02:30:07.040Z,18.24
2023-04-24T02:30:38.534Z,18.24
2023-04-24T02:31:09.968Z,18.24
2023-04-24T02:31:41.385Z,18.25
2023-04-24T02:32:13.004Z,18.24
2023-04-24T02:32:44.614Z,18.23
2023-04-24T02:33:16.029Z,18.24
2023-04-24T02:33:47.440Z,18.24
2023-04-24T02:34:18.854Z,18.23
2023-04-24T02:34:50.247Z,18.23
2023-04-24T02:35:21.673Z,18.23
2023-04-24T02:35:53.181Z,18.23
2023-04-24T02:36:24.601Z,18.22
2023-04-24T02:36:55.999Z,18.22
2023-04-24T02:37:27.423Z,18.22
2023-04-24T02:37:58.835Z,18.22
2023-04-24T02:38:30.263Z,18.21
2023-04-24T02:39:01.694Z,18.22
2023-04-24T02:39:33.081Z,18.20
2023-04-24T02:40:04.496Z,18.22
2023-04-24T02:40:35.889Z,18.20
2023-04-24T02:41:07.359Z,18.20
2023-04-24T02:41:38.774Z,18.19
2023-04-24T02:42:10.195Z,18.21
2023-04-24T02:42:41.584Z,18.20
2023-04-24T02:43:12.985Z,18.20
2023-04-24T02:43:44.410Z,18.21
2023-04-24T02:44:15.863Z,18.20
2023-04-24T02:44:47.282Z,18.20
2023-04-24T02:45:18.691Z,18.20
2023-04-24T02:45:50.151Z,18.20
2023-04-24T02:46:21.668Z,18.19
2023-04-24T02:46:53.136Z,18.20
2023-04-24T02:47:24.539Z,18.19
2023-04-24T02:47:56.044Z,18.19
2023-04-24T02:48:27.511Z,18.18
2023-04-24T02:48:58.938Z,18.19
2023-04-24T02:49:30.329Z,18.20
2023-04-24T02:50:01.784Z,18.20
2023-04-24T02:50:33.194Z,18.19
2023-04-24T02:51:04.608Z,18.18
2023-04-24T02:51:36.023Z,18.18
2023-04-24T02:52:07.431Z,18.18
2023-04-24T02:52:38.843Z,18.17
2023-04-24T02:53:10.289Z,18.16
2023-04-24T02:53:41.685Z,18.16
2023-04-24T02:54:13.099Z,18.17
2023-04-24T02:54:44.544Z,18.16
2023-04-24T02:55:15.958Z,18.15
2023-04-24T02:55:47.372Z,18.16
2023-04-24T02:56:18.795Z,18.16
2023-04-24T02:56:50.210Z,18.17
2023-04-24T02:57:21.647Z,18.16
2023-04-24T02:57:53.064Z,18.15
2023-04-24T02:58:24.465Z,18.15
2023-04-24T02:58:55.858Z,18.16
2023-04-24T02:59:27.276Z,18.15
2023-04-24T02:59:58.697Z,18.15
2023-04-24T03:00:30.123Z,18.14
2023-04-24T03:01:01.552Z,18.14
2023-04-24T03:01:33.038Z,18.14
2023-04-24T03:02:04.512Z,18.15
2023-04-24T03:02:36.087Z,18.14
2023-04-24T03:03:07.813Z,18.14
2023-04-24T03:03:39.552Z,18.15
2023-04-24T03:04:11.423Z,18.14
2023-04-24T03:04:43.305Z,18.13
2023-04-24T03:05:14.787Z,18.13
2023-04-24T03:05:46.202Z,18.13
2023-04-24T03:06:17.594Z,18.12
2023-04-24T03:06:49.015Z,18.13
2023-04-24T03:07:20.446Z,18.12
2023-04-24T03:07:51.851Z,18.12
2023-04-24T03:08:23.245Z,18.12
2023-04-24T03:08:54.644Z,18.11
2023-04-24T03:09:26.050Z,18.12
2023-04-24T03:09:57.442Z,18.12
2023-04-24T03:10:28.868Z,18.13
2023-04-24T03:11:00.257Z,18.13
2023-04-24T03:11:31.667Z,18.12
2023-04-24T03:12:03.082Z,18.12
2023-04-24T03:12:34.515Z,18.12
2023-04-24T03:13:05.951Z,18.11
2023-04-24T03:13:37.352Z,18.11
2023-04-24T03:14:08.755Z,18.10
2023-04-24T03:14:40.157Z,18.10
2023-04-24T03:15:11.584Z,18.10
2023-04-24T03:15:43.114Z,18.09
2023-04-24T03:16:14.635Z,18.10
2023-04-24T03:16:46.076Z,18.10
2023-04-24T03:17:17.486Z,18.08
2023-04-24T03:17:49.000Z,18.07
2023-04-24T03:18:20.542Z,18.08
2023-04-24T03:18:51.983Z,18.08
2023-04-24T03:19:23.401Z,18.09
2023-04-24T03:19:54.811Z,18.09
2023-04-24T03:20:26.213Z,18.09
2023-04-24T03:20:57.688Z,18.08
2023-04-24T03:21:29.095Z,18.08
2023-04-24T03:22:00.522Z,18.07
2023-04-24T03:22:31.923Z,18.08
2023-04-24T03:23:03.362Z,18.09
2023-04-24T03:23:34.787Z,18.07
2023-04-24T03:24:06.201Z,18.08
2023-04-24T03:24:37.595Z,18.08
2023-04-24T03:25:09.010Z,18.07
2023-04-24T03:25:40.435Z,18.06
2023-04-24T03:26:11.857Z,18.07
2023-04-24T03:26:43.279Z,18.06
2023-04-24T03:27:14.684Z,18.06
2023-04-24T03:27:46.107Z,18.05
2023-04-24T03:28:17.552Z,18.05
2023-04-24T03:28:48.946Z,18.05
2023-04-24T03:29:20.378Z,18.05
2023-04-24T03:29:51.776Z,18.05
2023-04-24T03:30:23.182Z,18.07
2023-04-24T03:30:54.573Z,18.04
2023-04-24T03:31:26.029Z,18.05
2023-04-24T03:31:57.514Z,18.05
2023-04-24T03:32:28.978Z,18.04
2023-04-24T03:33:00.453Z,18.05
2023-04-24T03:33:31.945Z,18.04
2023-04-24T03:34:03.372Z,18.04
2023-04-24T03:34:34.816Z,18.05
2023-04-24T03:35:06.237Z,18.04
2023-04-24T03:35:37.668Z,18.04
2023-04-24T03:36:09.077Z,18.03
2023-04-24T03:36:40.486Z,18.03
2023-04-24T03:37:11.912Z,18.03
2023-04-24T03:37:43.359Z,18.05
2023-04-24T03:38:14.773Z,18.04
2023-04-24T03:38:46.188Z,18.04
2023-04-24T03:39:17.604Z,18.03
2023-04-24T03:39:49.042Z,18.04
2023-04-24T03:40:20.456Z,18.04
2023-04-24T03:40:51.892Z,18.03
2023-04-24T03:41:23.302Z,18.03
2023-04-24T03:41:54.696Z,18.03
2023-04-24T03:42:26.123Z,18.02
2023-04-24T03:42:57.544Z,18.02
2023-04-24T03:43:28.942Z,18.02
2023-04-24T03:44:00.337Z,18.02
2023-04-24T03:44:31.750Z,18.02
2023-04-24T03:45:03.194Z,18.02
2023-04-24T03:45:34.593Z,18.02
2023-04-24T03:46:06.045Z,18.01
2023-04-24T03:46:37.562Z,18.01
2023-04-24T03:47:08.980Z,18.02
2023-04-24T03:47:40.413Z,18.02
2023-04-24T03:48:11.930Z,18.02
2023-04-24T03:48:43.346Z,18.01
2023-04-24T03:49:14.735Z,18.01
2023-04-24T03:49:46.150Z,18.01
2023-04-24T03:50:17.587Z,18.00
2023-04-24T03:50:49.004Z,18.01
2023-04-24T03:51:20.413Z,18.00
2023-04-24T03:51:51.805Z,17.99
2023-04-24T03:52:23.214Z,18.00
2023-04-24T03:52:54.638Z,17.99
2023-04-24T03:53:26.039Z,17.99
2023-04-24T03:53:57.480Z,17.99
2023-04-24T03:54:28.874Z,18.00
2023-04-24T03:55:00.299Z,18.00
2023-04-24T03:55:31.732Z,18.00
2023-04-24T03:56:03.130Z,17.99
2023-04-24T03:56:34.550Z,17.99
2023-04-24T03:57:05.971Z,18.00
2023-04-24T03:57:37.372Z,17.99
2023-04-24T03:58:08.792Z,17.99
2023-04-24T03:58:40.201Z,17.99
2023-04-24T03:59:11.603Z,17.99
2023-04-24T03:59:43.217Z,17.97
2023-04-24T04:00:14.789Z,17.98
2023-04-24T04:00:46.195Z,17.98
2023-04-24T04:01:17.600Z,17.98
2023-04-24T04:01:49.042Z,17.97
2023-04-24T04:02:20.560Z,17.98
2023-04-24T04:02:52.230Z,17.98
2023-04-24T04:03:23.918Z,17.96
2023-04-24T04:03:55.705Z,17.96
2023-04-24T04:04:27.605Z,17.97
2023-04-24T04:04:59.343Z,17.98
2023-04-24T04:05:31.145Z,17.99
2023-04-24T04:06:02.670Z,17.97
2023-04-24T04:06:34.066Z,17.97
2023-04-24T04:07:05.466Z,17.95
2023-04-24T04:07:36.884Z,17.95
2023-04-24T04:08:08.291Z,17.96
2023-04-24T04:08:39.699Z,17.95
2023-04-24T04:09:11.131Z,17.95
2023-04-24T04:09:42.712Z,17.95
2023-04-24T04:10:14.301Z,17.94
2023-04-24T04:10:45.742Z,17.95
2023-04-24T04:11:17.130Z,17.95
2023-04-24T04:11:48.530Z,17.94
2023-04-24T04:12:19.935Z,17.94
2023-04-24T04:12:51.355Z,17.95
2023-04-24T04:13:22.773Z,17.94
2023-04-24T04:13:54.180Z,17.94
2023-04-24T04:14:25.579Z,17.93
2023-04-24T04:14:57.014Z,17.93
2023-04-24T04:15:28.423Z,17.91
2023-04-24T04:15:59.954Z,17.92
2023-04-24T04:16:31.417Z,17.94
2023-04-24T04:17:02.880Z,17.93
2023-04-24T04:17:34.437Z,17.93
2023-04-24T04:18:05.920Z,17.93
2023-04-24T04:18:37.331Z,17.92
2023-04-24T04:19:08.730Z,17.93
2023-04-24T04:19:40.141Z,17.92
2023-04-24T04:20:11.548Z,17.92
2023-04-24T04:20:43.009Z,17.92
2023-04-24T04:21:14.457Z,17.91
2023-04-24T04:21:45.866Z,17.90
2023-04-24T04:22:17.262Z,17.92
2023-04-24T04:22:48.674Z,17.90
2023-04-24T04:23:20.087Z,17.91
2023-04-24T04:23:51.489Z,17.91
2023-04-24T04:24:22.900Z,17.91
2023-04-24T04:24:54.320Z,17.92
2023-04-24T04:25:25.717Z,17.93
2023-04-24T04:25:57.158Z,17.92
2023-04-24T04:26:28.600Z,17.92
2023-04-24T04:27:00.015Z,17.90
2023-04-24T04:27:31.416Z,17.90
2023-04-24T04:28:02.807Z,17.91
2023-04-24T04:28:34.198Z,17.90
2023-04-24T04:29:05.609Z,17.90
2023-04-24T04:29:37.005Z,17.90
2023-04-24T04:30:08.421Z,17.90
2023-04-24T04:30:39.841Z,17.90
2023-04-24T04:31:11.252Z,17.90
2023-04-24T04:31:42.735Z,17.91
2023-04-24T04:32:14.241Z,17.90
2023-04-24T04:32:45.783Z,17.91
2023-04-24T04:33:17.220Z,17.91
2023-04-24T04:33:48.641Z,17.91
2023-04-24T04:34:20.052Z,17.91
2023-04-24T04:34:51.448Z,17.91
2023-04-24T04:35:23.211Z,17.92
2023-04-24T04:35:54.746Z,17.92
2023-04-24T04:36:26.186Z,17.92
2023-04-24T04:36:57.621Z,17.93
2023-04-24T04:37:29.030Z,17.94
2023-04-24T04:38:00.422Z,17.94
2023-04-24T04:38:31.913Z,17.94
2023-04-24T04:39:03.338Z,17.95
2023-04-24T04:39:34.732Z,17.94
2023-04-24T04:40:06.138Z,17.96
2023-04-24T04:40:37.556Z,17.95
2023-04-24T04:41:08.966Z,17.96
2023-04-24T04:41:40.393Z,17.96
2023-04-24T04:42:11.805Z,17.97
2023-04-24T04:42:43.234Z,17.97
2023-04-24T04:43:14.651Z,17.97
2023-04-24T04:43:46.257Z,17.99
2023-04-24T04:44:17.699Z,18.00
2023-04-24T04:44:49.089Z,18.00
2023-04-24T04:45:20.518Z,18.00
2023-04-24T04:45:51.940Z,18.01
2023-04-24T04:46:23.491Z,18.01
2023-04-24T04:46:54.988Z,18.02
2023-04-24T04:47:26.472Z,18.02
2023-04-24T04:47:57.917Z,18.01
2023-04-24T04:48:29.372Z,18.04
2023-04-24T04:49:00.793Z,18.04
2023-04-24T04:49:32.266Z,18.05
2023-04-24T04:50:03.660Z,18.04
2023-04-24T04:50:35.052Z,18.05
2023-04-24T04:51:06.453Z,18.05
2023-04-24T04:51:37.854Z,18.06
2023-04-24T04:52:09.252Z,18.06
2023-04-24T04:52:40.677Z,18.06
2023-04-24T04:53:12.117Z,18.06
2023-04-24T04:53:43.565Z,18.07
2023-04-24T04:54:14.965Z,18.07
2023-04-24T04:54:46.379Z,18.08
2023-04-24T04:55:17.795Z,18.08
2023-04-24T04:55:49.196Z,18.09
2023-04-24T04:56:20.599Z,18.09
2023-04-24T04:56:52.019Z,18.09
2023-04-24T04:57:23.449Z,18.10
2023-04-24T04:57:54.890Z,18.10
2023-04-24T04:58:26.361Z,18.10
2023-04-24T04:58:57.770Z,18.11
2023-04-24T04:59:29.177Z,18.12
2023-04-24T05:00:00.702Z,18.12
2023-04-24T05:00:33.946Z,18.12
2023-04-24T05:01:06.488Z,18.12
2023-04-24T05:01:37.976Z,18.12
2023-04-24T05:02:09.472Z,18.12
2023-04-24T05:02:41.124Z,18.13
2023-04-24T05:03:20.801Z,18.12
2023-04-24T05:03:52.549Z,18.13
2023-04-24T05:04:24.350Z,18.14
2023-04-24T05:04:56.040Z,18.12
2023-04-24T05:05:27.609Z,18.13
2023-04-24T05:05:59.009Z,18.14
2023-04-24T05:06:30.418Z,18.14
2023-04-24T05:07:01.835Z,18.14
2023-04-24T05:07:33.220Z,18.14
2023-04-24T05:08:07.098Z,18.13
2023-04-24T05:08:38.664Z,18.13
2023-04-24T05:09:10.091Z,18.14
2023-04-24T05:09:41.718Z,18.14
2023-04-24T05:10:13.316Z,18.14
2023-04-24T05:10:44.727Z,18.14
2023-04-24T05:11:16.122Z,18.14
2023-04-24T05:11:47.544Z,18.14
2023-04-24T05:12:18.957Z,18.15
2023-04-24T05:12:50.361Z,18.14
2023-04-24T05:13:28.374Z,18.15
2023-04-24T05:14:07.536Z,18.15
2023-04-24T05:14:38.952Z,18.15
2023-04-24T05:15:10.369Z,18.15
2023-04-24T05:15:41.778Z,18.15
2023-04-24T05:16:13.170Z,18.16
2023-04-24T05:16:44.588Z,18.16
2023-04-24T05:17:16.095Z,18.15
2023-04-24T05:17:47.591Z,18.16
2023-04-24T05:18:19.021Z,18.16
2023-04-24T05:18:50.457Z,18.16
2023-04-24T05:19:21.868Z,18.16
2023-04-24T05:19:53.266Z,18.16
2023-04-24T05:20:24.685Z,18.16
2023-04-24T05:20:56.098Z,18.17
2023-04-24T05:21:27.511Z,18.18
2023-04-24T05:21:58.965Z,18.17
2023-04-24T05:22:30.397Z,18.17
2023-04-24T05:23:01.803Z,18.17
2023-04-24T05:23:33.207Z,18.17
2023-04-24T05:24:04.604Z,18.16
2023-04-24T05:24:36.019Z,18.16
2023-04-24T05:25:07.453Z,18.16
2023-04-24T05:25:38.875Z,18.16
2023-04-24T05:26:10.274Z,18.16
2023-04-24T05:26:41.693Z,18.15
2023-04-24T05:27:13.105Z,18.15
2023-04-24T05:27:44.510Z,18.17
2023-04-24T05:28:15.907Z,18.16
2023-04-24T05:28:47.328Z,18.15
2023-04-24T05:29:18.777Z,18.15
2023-04-24T05:29:50.177Z,18.15
2023-04-24T05:30:21.615Z,18.14
2023-04-24T05:30:53.030Z,18.16
2023-04-24T05:31:24.517Z,18.15
2023-04-24T05:31:56.034Z,18.16
2023-04-24T05:32:27.547Z,18.15
2023-04-24T05:33:00.663Z,18.16
2023-04-24T05:33:33.676Z,18.16
2023-04-24T05:34:05.086Z,18.17
2023-04-24T05:34:36.531Z,18.15
2023-04-24T05:35:07.938Z,18.16
2023-04-24T05:35:39.340Z,18.16
2023-04-24T05:36:10.745Z,18.16
2023-04-24T05:36:42.163Z,18.15
2023-04-24T05:37:13.576Z,18.16
2023-04-24T05:37:44.972Z,18.16
2023-04-24T05:38:16.422Z,18.15
2023-04-24T05:38:47.837Z,18.16
2023-04-24T05:39:19.241Z,18.16
2023-04-24T05:39:50.687Z,18.16
2023-04-24T05:40:22.097Z,18.17
2023-04-24T05:40:53.525Z,18.16
2023-04-24T05:41:24.911Z,18.17
2023-04-24T05:41:56.313Z,18.18
2023-04-24T05:42:27.709Z,18.17
2023-04-24T05:42:59.120Z,18.17
2023-04-24T05:43:30.590Z,18.18
2023-04-24T05:44:02.004Z,18.19
2023-04-24T05:44:33.456Z,18.18
2023-04-24T05:45:04.868Z,18.18
2023-04-24T05:45:36.282Z,18.19
2023-04-24T05:46:07.759Z,18.18
2023-04-24T05:46:39.319Z,18.18
2023-04-24T05:47:10.756Z,18.17
2023-04-24T05:47:42.200Z,18.19
2023-04-24T05:48:13.638Z,18.19
2023-04-24T05:48:45.040Z,18.17
2023-04-24T05:49:16.454Z,18.18
2023-04-24T05:49:47.913Z,18.19
2023-04-24T05:50:19.320Z,18.18
2023-04-24T05:50:50.764Z,18.19
2023-04-24T05:51:22.193Z,18.19
2023-04-24T05:51:53.594Z,18.19
2023-04-24T05:52:25.026Z,18.19
2023-04-24T05:52:56.435Z,18.20
2023-04-24T05:53:27.865Z,18.20
2023-04-24T05:53:59.277Z,18.22
2023-04-24T05:54:30.686Z,18.20
2023-04-24T05:55:02.112Z,18.22
2023-04-24T05:55:33.534Z,18.20
2023-04-24T05:56:04.951Z,18.21
2023-04-24T05:56:36.381Z,18.21
2023-04-24T05:57:07.791Z,18.21
2023-04-24T05:57:39.335Z,18.21
2023-04-24T05:58:10.822Z,18.21
2023-04-24T05:58:42.222Z,18.22
2023-04-24T05:59:13.626Z,18.20
2023-04-24T05:59:45.211Z,18.22
2023-04-24T06:00:16.692Z,18.22
2023-04-24T06:00:48.113Z,18.21
2023-04-24T06:01:19.534Z,18.21
2023-04-24T06:01:50.932Z,18.22
2023-04-24T06:02:22.443Z,18.22
2023-04-24T06:02:54.291Z,18.22
2023-04-24T06:03:26.033Z,18.22
2023-04-24T06:03:57.762Z,18.23
2023-04-24T06:04:29.454Z,18.22
2023-04-24T06:05:01.225Z,18.23
2023-04-24T06:05:32.796Z,18.23
2023-04-24T06:06:04.273Z,18.22
2023-04-24T06:06:36.881Z,18.22
2023-04-24T06:07:09.613Z,18.23
2023-04-24T06:07:42.317Z,18.23
2023-04-24T06:08:15.381Z,18.23
2023-04-24T06:08:50.679Z,18.22
2023-04-24T06:09:22.585Z,18.23
2023-04-24T06:09:54.506Z,18.23
2023-04-24T06:10:26.841Z,18.22
2023-04-24T06:10:58.627Z,18.23
2023-04-24T06:11:30.445Z,18.22
2023-04-24T06:12:02.145Z,18.23
2023-04-24T06:12:33.556Z,18.23
2023-04-24T06:13:04.982Z,18.22
2023-04-24T06:13:36.391Z,18.22
2023-04-24T06:14:07.818Z,18.22
2023-04-24T06:14:39.249Z,18.22
2023-04-24T06:15:10.666Z,18.22
2023-04-24T06:15:42.383Z,18.24
2023-04-24T06:16:15.246Z,18.23
2023-04-24T06:16:48.343Z,18.24
2023-04-24T06:17:21.568Z,18.23
2023-04-24T06:17:53.044Z,18.23
2023-04-24T06:18:24.471Z,18.23
2023-04-24T06:18:55.894Z,18.23
2023-04-24T06:19:27.308Z,18.22
2023-04-24T06:19:58.716Z,18.24
2023-04-24T06:20:30.139Z,18.23
2023-04-24T06:21:01.551Z,18.23
2023-04-24T06:21:32.941Z,18.23
2023-04-24T06:22:04.345Z,18.23
2023-04-24T06:22:35.769Z,18.23
2023-04-24T06:23:07.186Z,18.23
2023-04-24T06:23:38.619Z,18.23
2023-04-24T06:24:10.133Z,18.23
2023-04-24T06:24:41.572Z,18.23
2023-04-24T06:25:13.019Z,18.24
2023-04-24T06:25:44.418Z,18.24
2023-04-24T06:26:15.856Z,18.23
2023-04-24T06:26:47.256Z,18.23
2023-04-24T06:27:18.675Z,18.24
2023-04-24T06:27:50.083Z,18.23
2023-04-24T06:28:21.520Z,18.23
2023-04-24T06:28:52.941Z,18.24
2023-04-24T06:29:24.358Z,18.24
2023-04-24T06:29:55.812Z,18.24
2023-04-24T06:30:27.258Z,18.25
2023-04-24T06:30:58.703Z,18.24
2023-04-24T06:31:30.143Z,18.24
2023-04-24T06:32:01.578Z,18.24
2023-04-24T06:32:33.021Z,18.23
2023-04-24T06:33:16.764Z,18.24
2023-04-24T06:33:52.038Z,18.24
2023-04-24T06:34:23.453Z,18.24
2023-04-24T06:34:54.906Z,18.24
2023-04-24T06:35:26.329Z,18.24
2023-04-24T06:35:57.729Z,18.24
2023-04-24T06:36:29.156Z,18.25
2023-04-24T06:37:00.566Z,18.24
2023-04-24T06:37:31.972Z,18.23
2023-04-24T06:38:03.367Z,18.24
2023-04-24T06:38:34.869Z,18.24
2023-04-24T06:39:06.267Z,18.24
2023-04-24T06:39:37.694Z,18.23
2023-04-24T06:40:09.101Z,18.23
2023-04-24T06:40:40.510Z,18.25
2023-04-24T06:41:11.981Z,18.24
2023-04-24T06:41:43.408Z,18.24
2023-04-24T06:42:14.798Z,18.24
2023-04-24T06:42:46.279Z,18.24
2023-04-24T06:43:17.737Z,18.24
2023-04-24T06:43:49.129Z,18.24
2023-04-24T06:44:20.537Z,18.23
2023-04-24T06:44:51.976Z,18.25
2023-04-24T06:45:23.388Z,18.25
2023-04-24T06:45:54.862Z,18.25